Tiempo atmosférico en la estación meteorológica de Ribadeo, Lugo (43 m.)



Fecha
DESCASC
Temp. máxima en grados centígrados (hora)
DESCASC
Temp. mínima en grados centígrados (hora)
DESCASC
Temp. media en grados centígrados
DESCASC
Racha de viento máxima en m/sg (hora)
DESCASC
Velocidad máxima media en intervalos de 10 minutos(hora)
DESCASC
Precipitaciones diarias en mm
DESCASC
Precipitaciones de 00:00 a 06:00 en mm
DESCASC
Precipitaciones de 06:00 a 12:00 en mm
DESCASC
Precipitaciones de 12:00 a 18:00 en mm
DESCASC
Precipitaciones de 18:00 a 24:00 en mm
DESCASC
13-10-2019 -- (--) -- (--) -- -- (--) -- (--) -- 0 0.6 -- --
12-10-2019 20.7 (15:00) 11.9 (08:30) 16.3 14.17 (23:59) 5.83 (23:59) 0 0 0 0 0
11-10-2019 18.7 (15:20) 10.8 (08:20) 14.8 4.44 (21:50) 3.61 (08:50) 0 0 0 0 0
10-10-2019 19.7 (12:50) 10.5 (00:00) 15.1 6.11 (08:00) 4.44 (08:20) 0 0 0 0 0
09-10-2019 19.9 (14:40) 11.4 (00:00) 15.6 8.33 (03:20) 5.83 (03:20) 0.2 0.2 0 0 0
08-10-2019 21.8 (10:40) 14.4 (00:00) 18.1 11.67 (09:50) 7.5 (09:50) 6 0 3.2 2.6 0.2
07-10-2019 23 (18:00) 12.3 (00:00) 17.7 8.06 (10:40) 4.44 (10:40) 0 0 0 0 0
06-10-2019 19.3 (13:00) 14.8 (00:00) 17 9.72 (02:00) 5.83 (02:00) 0.2 0.2 0 0 0
05-10-2019 20 (13:50) 11.7 (00:00) 15.8 7.78 (23:20) 4.72 (23:20) 0 0 0 0 0
04-10-2019 19.7 (16:30) 16.1 (00:00) 17.9 5.28 (01:10) 3.06 (02:10) 0 0 0 0 0
03-10-2019 24.8 (17:40) 12.2 (00:00) 18.5 11.67 (14:00) 8.06 (13:40) 0 0 0 0 0
02-10-2019 19.7 (13:50) 13.5 (00:00) 16.6 9.17 (03:50) 5 (00:20) 0.6 0 0.6 0 0
01-10-2019 25.2 (15:20) 15.2 (00:00) 20.2 13.06 (16:20) 7.5 (16:10) 0 0 0 0 0
30-09-2019 27.7 (14:50) 16.1 (00:00) 21.9 9.72 (12:00) 5.28 (07:10) 0 0 0 0 0
29-09-2019 25.4 (15:30) 12.5 (00:00) 18.9 18.61 (08:40) 11.11 (03:40) 0 0 0 0 0
28-09-2019 20.8 (13:00) 12.1 (00:00) 16.4 6.11 (09:10) 4.17 (09:10) 0.2 0.2 0 0 0
27-09-2019 21.9 (17:20) 16.2 (00:00) 19.1 14.44 (03:00) 8.33 (01:50) 0.2 0 0 0.2 0
26-09-2019 25.8 (16:10) 15.9 (00:00) 20.8 12.22 (23:50) 7.78 (23:20) 0 0 0 0 0
25-09-2019 22.8 (16:40) 15.7 (00:00) 19.2 11.11 (01:10) 6.11 (16:40) 0 0 0 0 0
24-09-2019 23.9 (15:30) 17.3 (00:00) 20.6 22.22 (01:50) 11.39 (01:50) 0.8 0 0.8 0 0
23-09-2019 22.3 (23:20) 16.1 (00:00) 19.2 19.44 (14:50) 11.67 (14:00) 1.8 0 0.4 1.4 0
22-09-2019 22.3 (15:20) 15.8 (00:00) 19 13.06 (06:20) 6.39 (12:30) 0.4 0 0 0.4 0
21-09-2019 26.6 (16:10) 14.6 (00:00) 20.6 14.17 (14:40) 7.5 (20:00) 7 0 1.6 0 5.4
20-09-2019 16.8 (16:20) 13.7 (00:00) 15.2 5 (15:20) 2.78 (15:20) 1.8 0 0 0.4 1.4
19-09-2019 -- (--) -- (--) -- -- (--) -- (--) -- 0 0 0 --
18-09-2019 20.7 (13:20) 17.2 (00:00) 19 6.94 (23:00) 4.17 (22:50) 0 0 0 0 0
17-09-2019 20.9 (14:00) 18.4 (00:00) 19.6 3.33 (16:20) 2.22 (14:00) 1.8 0 0 0 1.8

Gráficas

Temp. máximas Temp. mínimas Temp. medias Precipitaciones Rachas de viento máximas Velocidades máximas media en intervalos de 10 minutos

Datos horarios

Fecha y hora oficial Temperatura (ºC) Velocidad del viento (km/h) Dirección del viento Racha (km/h) Dirección de racha Precipitación (mm) Presión (hPa) Tendencia (hPa) Humedad (%)
2019-10-16 23:00:00 15.2 8 Oeste 25 Oeste 0 -- -- 94
2019-10-16 22:00:00 17.1 19 Sudoeste 47 Sur 0 -- -- 82
2019-10-16 21:00:00 17.5 22 Sudoeste 45 Sudoeste 0 -- -- 79
2019-10-16 20:00:00 17.1 20 Sudoeste 43 Sudoeste 0 -- -- 80
2019-10-16 19:00:00 17 8 Sudoeste 48 Sudoeste 0.6 -- -- 84
2019-10-16 18:00:00 16.8 24 Sur 46 Sudoeste 2 -- -- 85
2019-10-16 17:00:00 16.9 28 Sur 59 Sur 1.4 -- -- 85
2019-10-16 16:00:00 19.2 31 Sur 58 Sur 0 -- -- 70
2019-10-16 15:00:00 20.9 31 Sur 59 Sur 0 -- -- 61
2019-10-16 14:00:00 20.3 39 Sur 62 Sur 0 -- -- 62
2019-10-16 13:00:00 20 38 Sudoeste 72 Sudoeste 0 -- -- 62
2019-10-16 12:00:00 19.6 36 Sur 68 Sur 0 -- -- 63
2019-10-16 11:00:00 18.8 38 Sudoeste 74 Sudoeste 0 -- -- 64
2019-10-16 10:00:00 18 41 Sur 82 Sur 0 -- -- 66
2019-10-16 09:00:00 17.1 34 Sur 75 Sur 0 -- -- 70
2019-10-16 08:00:00 16.9 36 Sudoeste 77 Sudoeste 0 -- -- 71
2019-10-16 07:00:00 16.9 40 Sur 75 Sudoeste 0 -- -- 71
2019-10-16 06:00:00 17.2 44 Sudoeste 75 Sur 0.6 -- -- 68
2019-10-16 05:00:00 17.1 40 Sur 71 Sur 0 -- -- 69
2019-10-16 04:00:00 17.4 37 Sur 76 Sudoeste 0 -- -- 65
2019-10-16 03:00:00 17.4 42 Sur 78 Sur 0 -- -- 64
2019-10-16 02:00:00 17.5 43 Sur 77 Sur 0 -- -- 64
2019-10-16 01:00:00 17.2 42 Sudoeste 78 Sudoeste 0 -- -- 66
2019-10-16 00:00:00 16.9 39 Sur 73 Sudoeste 0 -- -- 66
2019-10-15 23:00:00 17 36 Sur 72 Sur 0 -- -- 65
2019-10-15 22:00:00 16.8 40 Sur 69 Sudoeste 0.2 -- -- 65
2019-10-15 21:00:00 16 24 Sur 49 Sur 0 -- -- 69
2019-10-15 20:00:00 15.8 18 Sudoeste 42 Sur 0 -- -- 70
2019-10-15 19:00:00 16 19 Sudoeste 39 Sur 0 -- -- 69
2019-10-15 18:00:00 16.7 18 Sudoeste 40 Sur 0 -- -- 66
2019-10-15 17:00:00 16.9 18 Sudoeste 41 Sudoeste 0 -- -- 65
2019-10-15 16:00:00 16.8 26 Sudoeste 45 Sur 0 -- -- 65
2019-10-15 15:00:00 17.4 22 Sudoeste 39 Sudoeste 0 -- -- 64
2019-10-15 14:00:00 17.1 19 Sur 39 Sur 0 -- -- 64
2019-10-15 13:00:00 16.7 18 Sur 57 Sur 0 -- -- 66
2019-10-15 12:00:00 15.5 32 Sur 53 Sur 0 -- -- 73
2019-10-15 11:00:00 15.5 25 Sur 44 Sur 0 -- -- 68
2019-10-15 10:00:00 14.3 26 Sur 45 Sur 0 -- -- 72
2019-10-15 09:00:00 13.5 24 Sur 47 Sur 0 -- -- 74
2019-10-15 08:00:00 12.9 26 Sur 45 Sudoeste 0 -- -- 77
2019-10-15 07:00:00 12.7 22 Sur 36 Sudoeste 0 -- -- 77
2019-10-15 06:00:00 12.8 17 Sur 35 Sur 0 -- -- 78
2019-10-15 05:00:00 12.5 21 Sur 35 Sur 0 -- -- 79
2019-10-15 04:00:00 12.2 24 Sur 35 Sur 0 -- -- 79
2019-10-15 03:00:00 11.9 23 Sur 39 Sur 0 -- -- 79
2019-10-15 02:00:00 11.5 20 Sur 42 Sudoeste 0 -- -- 79
2019-10-15 01:00:00 11.2 28 Sur 43 Sur 0 -- -- 78
2019-10-15 00:00:00 11.2 31 Sur 50 Sur 0 -- -- 76
2019-10-14 23:00:00 11.4 26 Sur 42 Sur 0 -- -- 77
2019-10-14 22:00:00 11.4 22 Sur 38 Sudoeste 0 -- -- 79
2019-10-14 21:00:00 12.3 14 Sudoeste 28 Sudoeste 0 -- -- 73
2019-10-14 20:00:00 12.4 18 Sur 37 Sudoeste 0 -- -- 77
2019-10-14 19:00:00 13.7 13 Sudoeste 28 Sudoeste 0 -- -- 70
2019-10-14 18:00:00 13.5 10 Sudoeste 31 Sudoeste 0 -- -- 72
2019-10-14 17:00:00 14 14 Sudoeste 26 Oeste 0.2 -- -- 76
2019-10-14 16:00:00 13.6 13 Sur 26 Sudoeste 0 -- -- 83
2019-10-14 15:00:00 12.8 16 Oeste 40 Sudoeste 1.8 -- -- 86
2019-10-14 14:00:00 14.6 12 Sudoeste 33 Sur 0 -- -- 79
2019-10-14 13:00:00 14.5 18 Sur 44 Sur 0 -- -- 75
2019-10-14 12:00:00 14 21 Sur 39 Sur 0.2 -- -- 78
2019-10-14 11:00:00 13.8 21 Sur 41 Oeste 0.2 -- -- 79
2019-10-14 10:00:00 14.5 14 Sudoeste 35 Sur 0 -- -- 70
2019-10-14 09:00:00 13.8 17 Sur 40 Sur 0 -- -- 75
2019-10-14 08:00:00 13.6 14 Sur 23 Sudoeste 0 -- -- 77
2019-10-14 07:00:00 13.3 8 Sudoeste 43 Sur 0.8 -- -- 80
2019-10-14 06:00:00 12.8 20 Sur 36 Sudoeste 1.4 -- -- 89
2019-10-14 05:00:00 13.1 21 Sur 32 Sur 0.4 -- -- 86
2019-10-14 04:00:00 12.7 26 Sur 35 Sur 1.4 -- -- 89
2019-10-14 03:00:00 12.6 14 Sur 28 Sur 2.2 -- -- 93
2019-10-14 02:00:00 12.9 14 Sur 26 Sur 1.8 -- -- 92
2019-10-14 01:00:00 13.7 15 Sur 24 Sur 0.2 -- -- 93
2019-10-14 00:00:00 13.7 4 Sudeste 15 Oeste 2.4 -- -- 98
2019-10-13 23:00:00 14 13 Oeste 18 Oeste 7.2 -- -- 98
2019-10-13 22:00:00 14.3 6 Oeste 9 Oeste 3.4 -- -- 98
2019-10-13 21:00:00 14.4 3 Sudeste 8 Sudeste 2.6 -- -- 97
2019-10-13 20:00:00 -- -- -- -- -- -- -- -- --
2019-10-13 19:00:00 -- -- -- -- -- -- -- -- --
2019-10-13 18:00:00 -- -- -- -- -- -- -- -- --
2019-10-13 17:00:00 -- -- -- -- -- -- -- -- --
2019-10-13 16:00:00 -- -- -- -- -- -- -- -- --
2019-10-13 15:00:00 17.4 5 Nordeste 10 Noroeste 0 -- -- 83
2019-10-13 14:00:00 17.6 7 Norte 17 Noroeste 0 -- -- 81
2019-10-13 13:00:00 17.9 9 Noroeste 23 Oeste 0 -- -- 78
2019-10-13 12:00:00 17.3 17 Oeste 29 Oeste 0 -- -- 85
2019-10-13 11:00:00 16 15 Noroeste 31 Oeste 0.2 -- -- 90
2019-10-13 10:00:00 19.4 18 Oeste 41 Sudoeste 0 -- -- 73
2019-10-13 09:00:00 19.2 16 Sudoeste 37 Sudoeste 0 -- -- 69
2019-10-13 08:00:00 18.7 15 Sur 38 Sur 0.2 -- -- 70
2019-10-13 07:00:00 19.3 19 Sudoeste 57 Sudoeste 0.2 -- -- 68
2019-10-13 06:00:00 21 29 Sur 57 Sur 0 -- -- 54
2019-10-13 05:00:00 20.6 20 Sur 47 Sudoeste 0 -- -- 54
2019-10-13 04:00:00 20.7 17 Sur 44 Sur 0 -- -- 53
2019-10-13 03:00:00 20.5 17 Sur 40 Sur 0 -- -- 55
2019-10-13 02:00:00 19.8 22 Sur 45 Sudoeste 0 -- -- 61
2019-10-13 01:00:00 19.7 23 Sudoeste 44 Sur 0 -- -- 65
2019-10-13 00:00:00 20.4 21 Sudoeste 51 Sudoeste 0 -- -- 64
2019-10-12 23:00:00 17.5 7 Sudoeste 26 Sur 0 -- -- 77
2019-10-12 22:00:00 16.6 6 Sudeste 16 Sur 0 -- -- 86
2019-10-12 21:00:00 17.8 9 Sudeste 13 Sur 0 -- -- 82
2019-10-12 20:00:00 18.2 5 Sur 13 Este 0 -- -- 83
2019-10-12 19:00:00 19.1 8 Este 22 Nordeste 0 -- -- 81
2019-10-12 18:00:00 20 10 Nordeste 22 Este 0 -- -- 72
2019-10-12 17:00:00 20.4 16 Este 24 Este 0 -- -- 69
2019-10-12 16:00:00 20.4 14 Nordeste 24 Nordeste 0 -- -- 71
2019-10-12 15:00:00 20.7 15 Este 26 Nordeste 0 -- -- 68
2019-10-12 14:00:00 20.4 12 Nordeste 21 Nordeste 0 -- -- 71
2019-10-12 13:00:00 19.5 10 Nordeste 16 Norte 0 -- -- 73
2019-10-12 12:00:00 18.7 8 Nordeste 12 Nordeste 0 -- -- 78
2019-10-12 11:00:00 16.1 0 Calma 5 Sur 0 -- -- 92
2019-10-12 10:00:00 14.9 3 Noroeste 8 Sur 0 -- -- 95
2019-10-12 09:00:00 12.6 4 Sur 10 Sudeste 0 -- -- 97
2019-10-12 08:00:00 12.1 2 Sudeste 14 Sudeste 0 -- -- 94
2019-10-12 07:00:00 12.6 8 Sudeste 13 Sur 0 -- -- 94
2019-10-12 06:00:00 13.3 2 Sur 15 Sur 0 -- -- 94
2019-10-12 05:00:00 14.1 8 Sur 17 Sur 0 -- -- 95
2019-10-12 04:00:00 13.3 10 Sur 14 Sudeste 0 -- -- 96
2019-10-12 03:00:00 13.7 7 Sur 8 Sur 0 -- -- 93
2019-10-12 02:00:00 15.3 4 Sur 9 Sur 0 -- -- 90
2019-10-12 01:00:00 16 4 Sur 8 Sudeste 0 -- -- 90
2019-10-12 00:00:00 16.4 6 Sudeste 10 Sudeste 0 -- -- 89
2019-10-11 23:00:00 16.6 4 Sudeste 9 Sudeste 0 -- -- 88
2019-10-11 22:00:00 16.7 6 Sudeste 16 Sudeste 0 -- -- 87
2019-10-11 21:00:00 17 8 Sudeste 13 Este 0 -- -- 85
2019-10-11 20:00:00 17.2 6 Este 14 Este 0 -- -- 84
2019-10-11 19:00:00 17.4 3 Norte 14 Nordeste 0 -- -- 83
2019-10-11 18:00:00 17.8 6 Norte 12 Nordeste 0 -- -- 82
2019-10-11 17:00:00 18 5 Norte 14 Norte 0 -- -- 82
2019-10-11 16:00:00 18.4 7 Nordeste 14 Nordeste 0 -- -- 79
2019-10-11 15:00:00 18.3 6 Norte 14 Norte 0 -- -- 79
2019-10-11 14:00:00 18.1 7 Noroeste 15 Noroeste 0 -- -- 81
2019-10-11 13:00:00 17.9 5 Norte 13 Norte 0 -- -- 79
2019-10-11 12:00:00 18.1 4 Norte 10 Noroeste 0 -- -- 84
2019-10-11 11:00:00 17.1 4 Noroeste 8 Noroeste 0 -- -- 84
2019-10-11 10:00:00 14.9 2 Sur 8 Sur 0 -- -- 90
2019-10-11 09:00:00 11.5 8 Sur 14 Sudeste 0 -- -- 95
2019-10-11 08:00:00 11 5 Sur 9 Sur 0 -- -- 95
2019-10-11 07:00:00 11.6 4 Sudoeste 13 Sur 0 -- -- 96
2019-10-11 06:00:00 11.8 10 Sur 14 Sur 0 -- -- 97
2019-10-11 05:00:00 11.3 6 Sudeste 10 Sudeste 0 -- -- 95
2019-10-11 04:00:00 12.4 3 Sudoeste 14 Sudeste 0 -- -- 94
2019-10-11 03:00:00 12.2 12 Sur 15 Sudeste 0 -- -- 96
2019-10-11 02:00:00 12.4 10 Sur 13 Sur 0 -- -- 95
2019-10-11 01:00:00 12.3 11 Sur 14 Sudeste 0 -- -- 95
2019-10-11 00:00:00 12.2 6 Sur 9 Sur 0 -- -- 94
2019-10-10 23:00:00 12.2 4 Sur 5 Sur 0 -- -- 92
2019-10-10 22:00:00 12.9 3 Sur 10 Sur 0 -- -- 91
2019-10-10 21:00:00 14.1 6 Sur 8 Sur 0 -- -- 90
2019-10-10 20:00:00 16.6 4 Sudeste 15 Este 0 -- -- 82
2019-10-10 19:00:00 17.9 8 Nordeste 20 Nordeste 0 -- -- 76
2019-10-10 18:00:00 18.5 10 Nordeste 19 Nordeste 0 -- -- 72
2019-10-10 17:00:00 19.4 9 Este 17 Este 0 -- -- 70
2019-10-10 16:00:00 19.6 6 Norte 15 Nordeste 0 -- -- 67
2019-10-10 15:00:00 19.6 7 Norte 13 Norte 0 -- -- 64
2019-10-10 14:00:00 19.7 7 Norte 13 Norte 0 -- -- 60
2019-10-10 13:00:00 19.6 6 Nordeste 11 Este 0 -- -- 65
2019-10-10 12:00:00 19 5 Este 10 Este 0 -- -- 65
2019-10-10 11:00:00 17.1 8 Sudeste 15 Sur 0 -- -- 72
2019-10-10 10:00:00 14 12 Sudeste 14 Sudeste 0 -- -- 80
2019-10-10 09:00:00 11.2 10 Sur 19 Sudeste 0 -- -- 89
2019-10-10 08:00:00 10.6 15 Sudeste 22 Sudeste 0 -- -- 91
2019-10-10 07:00:00 11 12 Sur 15 Sudeste 0 -- -- 90
2019-10-10 06:00:00 12.2 12 Sur 17 Sur 0 -- -- 88
2019-10-10 05:00:00 11.3 13 Sur 15 Sur 0 -- -- 93
2019-10-10 04:00:00 11.2 8 Sur 14 Sur 0 -- -- 93
2019-10-10 03:00:00 11.3 12 Sur 14 Sudeste 0 -- -- 94
2019-10-10 02:00:00 11.5 10 Sur 12 Sur 0 -- -- 93
2019-10-10 01:00:00 11.7 6 Sur 11 Sur 0 -- -- 92
2019-10-10 00:00:00 11.5 9 Sur 13 Sur 0 -- -- 89
2019-10-09 23:00:00 12.3 3 Sur 6 Sur 0 -- -- 90
2019-10-09 22:00:00 13.5 5 Sur 8 Sur 0 -- -- 88
2019-10-09 21:00:00 14.8 3 Sudoeste 9 Oeste 0 -- -- 82
2019-10-09 20:00:00 15.7 5 Noroeste 15 Noroeste 0 -- -- 75
2019-10-09 19:00:00 17.1 10 Noroeste 19 Noroeste 0 -- -- 75
2019-10-09 18:00:00 18.3 10 Noroeste 19 Noroeste 0 -- -- 68
2019-10-09 17:00:00 18.5 10 Noroeste 18 Noroeste 0 -- -- 67
2019-10-09 16:00:00 18.3 10 Noroeste 19 Noroeste 0 -- -- 74
2019-10-09 15:00:00 19.7 9 Noroeste 16 Oeste 0 -- -- 58
2019-10-09 14:00:00 19.4 6 Noroeste 26 Oeste 0 -- -- 57
2019-10-09 13:00:00 18.6 15 Oeste 28 Sudoeste 0 -- -- 62
2019-10-09 12:00:00 18.3 12 Sur 25 Sur 0 -- -- 70
2019-10-09 11:00:00 16.5 15 Sur 24 Sur 0 -- -- 74
2019-10-09 10:00:00 14.6 12 Sudoeste 24 Sudoeste 0 -- -- 77
2019-10-09 09:00:00 13.8 12 Sur 26 Sur 0 -- -- 79
2019-10-09 08:00:00 13.2 18 Sur 27 Sur 0 -- -- 82
2019-10-09 07:00:00 14 8 Sur 22 Sudoeste 0 -- -- 79
2019-10-09 06:00:00 13.4 13 Sur 21 Sur 0 -- -- 82
2019-10-09 05:00:00 13.5 11 Sur 30 Sur 0.2 -- -- 82
2019-10-09 04:00:00 13.7 15 Sur 30 Sur 0 -- -- 80
2019-10-09 03:00:00 13.7 8 Sur 23 Sur 0 -- -- 81
2019-10-09 02:00:00 14.3 9 Sur 18 Sudoeste 0 -- -- 79
2019-10-09 01:00:00 13.9 7 Sudoeste 12 Sudoeste 0 -- -- 85
2019-10-09 00:00:00 14.8 6 Sudoeste 12 Sudoeste 0 -- -- 84
2019-10-08 23:00:00 15 6 Sur 9 Sur 0 -- -- 91
2019-10-08 22:00:00 15.7 5 Sudoeste 10 Oeste 0 -- -- 87
2019-10-08 21:00:00 15.8 5 Oeste 10 Oeste 0 -- -- 89
2019-10-08 20:00:00 16.1 6 Oeste 11 Noroeste 0 -- -- 90
2019-10-08 19:00:00 16 5 Sudoeste 10 Sur 0.2 -- -- 91
2019-10-08 18:00:00 16.2 5 Sur 7 Sur 0.2 -- -- 92
2019-10-08 17:00:00 16.5 2 Oeste 12 Sur 0 -- -- 89
2019-10-08 16:00:00 17.2 8 Sur 11 Sur 0 -- -- 88
2019-10-08 15:00:00 16.4 3 Sudoeste 15 Oeste 0 -- -- 89
2019-10-08 14:00:00 15.6 10 Oeste 27 Noroeste 0.8 -- -- 96
2019-10-08 13:00:00 15.7 17 Noroeste 31 Oeste 1.6 -- -- 98
2019-10-08 12:00:00 16.6 17 Noroeste 34 Oeste 3.2 -- -- 97
2019-10-08 11:00:00 21.8 22 Sudoeste 38 Sur 0 -- -- 77
2019-10-08 10:00:00 21.4 24 Sur 42 Sur 0 -- -- 78
2019-10-08 09:00:00 21.2 23 Sur 39 Sur 0 -- -- 78
2019-10-08 08:00:00 21 23 Sur 40 Sur 0 -- -- 79
2019-10-08 07:00:00 20.9 21 Sur 28 Sur 0 -- -- 80
2019-10-08 06:00:00 21 11 Sudoeste 21 Sudoeste 0 -- -- 80
2019-10-08 05:00:00 21.2 9 Sudoeste 19 Oeste 0 -- -- 80
2019-10-08 04:00:00 21 10 Sudoeste 21 Sur 0 -- -- 80
2019-10-08 03:00:00 20.6 10 Sur 20 Sur 0 -- -- 80
2019-10-08 02:00:00 19.1 10 Oeste 23 Sur 0 -- -- 77
2019-10-08 01:00:00 17.1 0 Calma 16 Sur 0 -- -- 86
2019-10-08 00:00:00 16.3 3 Sudeste 11 Sur 0 -- -- 88
2019-10-07 23:00:00 16.2 3 Sur 9 Sudeste 0 -- -- 87
2019-10-07 22:00:00 16.6 0 Calma 5 Oeste 0 -- -- 83
2019-10-07 21:00:00 17.6 3 Sudoeste 10 Oeste 0 -- -- 82
2019-10-07 20:00:00 19.7 5 Oeste 7 Oeste 0 -- -- 74
2019-10-07 19:00:00 22 4 Nordeste 8 Nordeste 0 -- -- 63
2019-10-07 18:00:00 23 4 Sudeste 10 Nordeste 0 -- -- 54
2019-10-07 17:00:00 21.6 8 Nordeste 13 Nordeste 0 -- -- 61
2019-10-07 16:00:00 22.4 8 Nordeste 15 Nordeste 0 -- -- 57
2019-10-07 15:00:00 22.8 5 Nordeste 13 Nordeste 0 -- -- 54
2019-10-07 14:00:00 21.3 8 Norte 15 Noroeste 0 -- -- 62
2019-10-07 13:00:00 21.3 6 Nordeste 10 Nordeste 0 -- -- 67
2019-10-07 12:00:00 19.8 4 Norte 15 Oeste 0 -- -- 76
2019-10-07 11:00:00 19.9 10 Oeste 29 Sudoeste 0 -- -- 66
2019-10-07 10:00:00 16.5 5 Sur 14 Sur 0 -- -- 83
2019-10-07 09:00:00 13.4 9 Sur 14 Sur 0 -- -- 94
2019-10-07 08:00:00 12.8 10 Sur 14 Sur 0 -- -- 96
2019-10-07 07:00:00 12.3 4 Sur 5 Sur 0 -- -- 95
2019-10-07 06:00:00 12.7 7 Sudeste 10 Sudeste 0 -- -- 95
2019-10-07 05:00:00 13.5 5 Sur 8 Sur 0 -- -- 93
2019-10-07 04:00:00 13.7 2 Sudoeste 11 Sudeste 0 -- -- 92
2019-10-07 03:00:00 14.3 4 Sur 14 Sur 0 -- -- 90
2019-10-07 02:00:00 15.1 12 Sur 17 Sur 0 -- -- 90
2019-10-07 01:00:00 14.1 7 Sudeste 9 Sudeste 0 -- -- 92
2019-10-07 00:00:00 14.8 4 Sur 7 Sur 0 -- -- 88
2019-10-06 23:00:00 16.5 3 Sudeste 9 Sudeste 0 -- -- 85
2019-10-06 22:00:00 17 3 Sudeste 9 Este 0 -- -- 83
2019-10-06 21:00:00 17.2 6 Este 12 Este 0 -- -- 81
2019-10-06 20:00:00 17.5 6 Nordeste 12 Este 0 -- -- 80
2019-10-06 19:00:00 18 6 Nordeste 14 Nordeste 0 -- -- 78
2019-10-06 18:00:00 18.4 8 Nordeste 17 Nordeste 0 -- -- 77
2019-10-06 17:00:00 18.6 8 Nordeste 17 Norte 0 -- -- 76
2019-10-06 16:00:00 18.9 7 Norte 21 Norte 0 -- -- 75
2019-10-06 15:00:00 18.9 5 Norte 14 Nordeste 0 -- -- 78
2019-10-06 14:00:00 18.7 8 Norte 13 Norte 0 -- -- 79
2019-10-06 13:00:00 19.3 8 Norte 18 Noroeste 0 -- -- 79
2019-10-06 12:00:00 18.3 5 Noroeste 11 Norte 0 -- -- 83
2019-10-06 11:00:00 17.9 4 Sudoeste 10 Sudoeste 0 -- -- 84
2019-10-06 10:00:00 16 7 Sur 12 Sudeste 0 -- -- 93
2019-10-06 09:00:00 16 2 Sudoeste 5 Sur 0 -- -- 93
2019-10-06 08:00:00 16.2 0 Calma 5 Sudeste 0 -- -- 91
2019-10-06 07:00:00 16.4 3 Oeste 12 Oeste 0 -- -- 87
2019-10-06 06:00:00 16.8 6 Sudoeste 24 Sur 0 -- -- 83
2019-10-06 05:00:00 16.3 13 Sur 25 Sur 0 -- -- 86
2019-10-06 04:00:00 16.2 3 Sudoeste 21 Oeste 0.2 -- -- 90
2019-10-06 03:00:00 18 6 Oeste 29 Sur 0 -- -- 72
2019-10-06 02:00:00 17.5 21 Sur 35 Sur 0 -- -- 72
2019-10-06 01:00:00 17.3 17 Sur 27 Sur 0 -- -- 71
2019-10-06 00:00:00 16.9 14 Sur 28 Sur 0 -- -- 72
2019-10-05 23:00:00 16.8 14 Sur 24 Sur 0 -- -- 75
2019-10-05 22:00:00 15.9 11 Sur 18 Sur 0 -- -- 78
2019-10-05 21:00:00 15.2 11 Sur 14 Sur 0 -- -- 80
2019-10-05 20:00:00 17.1 8 Sur 10 Sudeste 0 -- -- 78
2019-10-05 19:00:00 18.4 2 Este 8 Este 0 -- -- 72
2019-10-05 18:00:00 18.7 5 Norte 17 Norte 0 -- -- 70
2019-10-05 17:00:00 19.4 9 Noroeste 21 Noroeste 0 -- -- 65
2019-10-05 16:00:00 19.8 9 Noroeste 20 Noroeste 0 -- -- 62
2019-10-05 15:00:00 19.6 10 Norte 16 Nordeste 0 -- -- 69
2019-10-05 14:00:00 19.7 10 Noroeste 19 Sudoeste 0 -- -- 68
2019-10-05 13:00:00 18.7 6 Sudoeste 12 Sudeste 0 -- -- 69
2019-10-05 12:00:00 17.2 10 Sur 15 Sur 0 -- -- 76
2019-10-05 11:00:00 16.3 6 Sur 9 Sudeste 0 -- -- 85
2019-10-05 10:00:00 15.1 4 Sur 9 Sur 0 -- -- 91
2019-10-05 09:00:00 12.1 6 Sur 8 Sur 0 -- -- 95
2019-10-05 08:00:00 12.1 5 Sur 9 Sudeste 0 -- -- 92
2019-10-05 07:00:00 12.8 2 Noroeste 8 Sur 0 -- -- 93
2019-10-05 06:00:00 14 3 Sur 14 Sur 0 -- -- 90
2019-10-05 05:00:00 15.1 11 Sur 14 Sur 0 -- -- 89
2019-10-05 04:00:00 15.9 6 Sudeste 9 Sudeste 0 -- -- 89
2019-10-05 03:00:00 16 5 Sur 6 Sur 0 -- -- 90
2019-10-05 02:00:00 16.1 4 Sur 6 Sur 0 -- -- 88
2019-10-05 01:00:00 16 5 Sudeste 6 Sur 0 -- -- 89
2019-10-05 00:00:00 16.2 0 Calma -- -- 0 -- -- 88
2019-10-04 23:00:00 16.3 3 Sur 4 Sur 0 -- -- 87
2019-10-04 22:00:00 16.6 0 Calma 5 Sudeste 0 -- -- 85
2019-10-04 21:00:00 17 4 Sur 5 Sur 0 -- -- 84
2019-10-04 20:00:00 17.5 0 Calma 7 Norte 0 -- -- 78
2019-10-04 19:00:00 18 4 Norte 14 Norte 0 -- -- 76
2019-10-04 18:00:00 18.5 7 Norte 14 Noroeste 0 -- -- 77
2019-10-04 17:00:00 19.2 6 Norte 16 Noroeste 0 -- -- 71
2019-10-04 16:00:00 19.4 6 Noroeste 15 Noroeste 0 -- -- 68
2019-10-04 15:00:00 19.2 8 Norte 14 Noroeste 0 -- -- 69
2019-10-04 14:00:00 19.3 5 Norte 13 Norte 0 -- -- 65
2019-10-04 13:00:00 18.8 5 Noroeste 12 Norte 0 -- -- 71
2019-10-04 12:00:00 19.3 5 Sur 13 Noroeste 0 -- -- 75
2019-10-04 11:00:00 17.6 5 Oeste 12 Sur 0 -- -- 78
2019-10-04 10:00:00 16.9 4 Sudoeste 10 Oeste 0 -- -- 82
2019-10-04 09:00:00 16.2 4 Sudoeste 12 Oeste 0 -- -- 86
2019-10-04 08:00:00 16.3 5 Sudoeste 14 Oeste 0 -- -- 91
2019-10-04 07:00:00 16.5 8 Sur 10 Sur 0 -- -- 93
2019-10-04 06:00:00 16.9 3 Sudoeste 9 Sur 0 -- -- 89
2019-10-04 05:00:00 16.9 6 Sur 9 Sur 0 -- -- 92
2019-10-04 04:00:00 17 5 Oeste 14 Oeste 0 -- -- 91
2019-10-04 03:00:00 17.2 10 Oeste 17 Oeste 0 -- -- 91
2019-10-04 02:00:00 18 8 Oeste 19 Oeste 0 -- -- 85
2019-10-04 01:00:00 18.4 8 Oeste 15 Oeste 0 -- -- 88
2019-10-04 00:00:00 19.5 2 Noroeste 5 Norte 0 -- -- 87
2019-10-03 23:00:00 19.7 0 Calma 15 Norte 0 -- -- 89
2019-10-03 22:00:00 20.7 8 Oeste 31 Sur 0 -- -- 79
2019-10-03 21:00:00 21.2 12 Sur 26 Sur 0 -- -- 78
2019-10-03 20:00:00 22.1 16 Sur 32 Sur 0 -- -- 71
2019-10-03 19:00:00 22.8 19 Sudoeste 33 Sur 0 -- -- 67
2019-10-03 18:00:00 23.9 19 Sur 37 Sudoeste 0 -- -- 62
2019-10-03 17:00:00 23.8 14 Sur 27 Sudoeste 0 -- -- 62
2019-10-03 16:00:00 24.2 9 Sudoeste 24 Sudoeste 0 -- -- 61
2019-10-03 15:00:00 24.5 15 Sudoeste 39 Sur 0 -- -- 58
2019-10-03 14:00:00 23.4 23 Sur 42 Sudoeste 0 -- -- 58
2019-10-03 13:00:00 22.1 18 Sur 34 Sur 0 -- -- 57
2019-10-03 12:00:00 21.1 24 Sur 39 Sur 0 -- -- 57
2019-10-03 11:00:00 19.1 22 Sur 37 Sur 0 -- -- 65
2019-10-03 10:00:00 17.2 9 Oeste 38 Sur 0 -- -- 70
2019-10-03 09:00:00 16.4 18 Sudoeste 33 Sur 0 -- -- 71
2019-10-03 08:00:00 16 20 Sudoeste 32 Sudoeste 0 -- -- 75
2019-10-03 07:00:00 13.8 6 Sur 18 Sudoeste 0 -- -- 87
2019-10-03 06:00:00 12.3 5 Sur 13 Sur 0 -- -- 94
2019-10-03 05:00:00 12.4 10 Sur 13 Sudeste 0 -- -- 95
2019-10-03 04:00:00 12.7 10 Sur 14 Sur 0 -- -- 96
2019-10-03 03:00:00 12.3 9 Sur 13 Sur 0 -- -- 97
2019-10-03 02:00:00 12.2 3 Sur 5 Sudeste 0 -- -- 95
2019-10-03 01:00:00 12.6 3 Sur 8 Sur 0 -- -- 93
2019-10-03 00:00:00 13.5 6 Sur 9 Sudeste 0 -- -- 94
2019-10-02 23:00:00 14.2 8 Sur 9 Sur 0 -- -- 93
2019-10-02 22:00:00 15.5 5 Sudeste 7 Sudeste 0 -- -- 91
2019-10-02 21:00:00 15.8 4 Sur 6 Sur 0 -- -- 90
2019-10-02 20:00:00 17 3 Noroeste 7 Noroeste 0 -- -- 85
2019-10-02 19:00:00 17.9 4 Norte 13 Noroeste 0 -- -- 83
2019-10-02 18:00:00 18.4 8 Noroeste 14 Norte 0 -- -- 79
2019-10-02 17:00:00 18.8 8 Noroeste 17 Norte 0 -- -- 77
2019-10-02 16:00:00 19.3 7 Norte 17 Norte 0 -- -- 71
2019-10-02 15:00:00 18.8 10 Noroeste 19 Noroeste 0 -- -- 75
2019-10-02 14:00:00 19.6 9 Nordeste 15 Oeste 0 -- -- 69
2019-10-02 13:00:00 19 5 Oeste 18 Sur 0 -- -- 69
2019-10-02 12:00:00 17.2 9 Sudoeste 22 Noroeste 0 -- -- 76
2019-10-02 11:00:00 17.2 7 Noroeste 21 Sudoeste 0 -- -- 76
2019-10-02 10:00:00 16.4 8 Sudoeste 14 Sudoeste 0 -- -- 77
2019-10-02 09:00:00 15.3 4 Sudoeste 22 Sudoeste 0 -- -- 83
2019-10-02 08:00:00 14.9 9 Sudoeste 19 Sudoeste 0 -- -- 84
2019-10-02 07:00:00 14.6 5 Sur 24 Oeste 0.6 -- -- 92
2019-10-02 06:00:00 15.6 10 Noroeste 23 Sudoeste 0 -- -- 86
2019-10-02 05:00:00 16.5 4 Sudoeste 21 Sudoeste 0 -- -- 73
2019-10-02 04:00:00 16.7 14 Sudoeste 33 Sudoeste 0 -- -- 72
2019-10-02 03:00:00 16.9 15 Sudoeste 26 Sudoeste 0 -- -- 71
2019-10-02 02:00:00 17.6 15 Sudoeste 24 Sudoeste 0 -- -- 66
2019-10-02 01:00:00 17.2 15 Sudoeste 32 Sur 0 -- -- 68
2019-10-02 00:00:00 16.7 15 Sur 28 Sur 0 -- -- 71
2019-10-01 23:00:00 15.8 9 Oeste 20 Oeste 0 -- -- 75
2019-10-01 22:00:00 15.4 6 Sudoeste 19 Sudoeste 0 -- -- 74
2019-10-01 21:00:00 16.8 9 Sudoeste 22 Oeste 0 -- -- 71
2019-10-01 20:00:00 18.9 13 Oeste 41 Oeste 0 -- -- 65
2019-10-01 19:00:00 21.4 19 Oeste 42 Oeste 0 -- -- 57
2019-10-01 18:00:00 22.4 24 Oeste 41 Oeste 0 -- -- 52
2019-10-01 17:00:00 23.4 24 Oeste 47 Oeste 0 -- -- 49
2019-10-01 16:00:00 23.1 26 Oeste 40 Oeste 0 -- -- 52
2019-10-01 15:00:00 24.2 22 Oeste 37 Sudoeste 0 -- -- 49
2019-10-01 14:00:00 22.7 15 Oeste 45 Oeste 0 -- -- 53
2019-10-01 13:00:00 23.1 18 Sudoeste 37 Oeste 0 -- -- 52
2019-10-01 12:00:00 22.8 21 Sudoeste 38 Oeste 0 -- -- 54
2019-10-01 11:00:00 21.3 19 Sudoeste 34 Sudoeste 0 -- -- 63
2019-10-01 10:00:00 20.3 15 Sudoeste 30 Sudoeste 0 -- -- 70
2019-10-01 09:00:00 19.4 13 Sudoeste 25 Sudoeste 0 -- -- 73
2019-10-01 08:00:00 19.3 14 Sudoeste 28 Sudoeste 0 -- -- 73
2019-10-01 07:00:00 19.2 13 Sudoeste 28 Sur 0 -- -- 75
2019-10-01 06:00:00 19.4 15 Sudoeste 29 Sudoeste 0 -- -- 75
2019-10-01 05:00:00 19.7 14 Sudoeste 36 Sur 0 -- -- 71
2019-10-01 04:00:00 19.7 24 Sur 41 Sur 0 -- -- 71
2019-10-01 03:00:00 19.5 18 Sur 37 Sur 0 -- -- 72
2019-10-01 02:00:00 19.6 23 Sur 36 Sur 0 -- -- 73
2019-10-01 01:00:00 20 13 Sudoeste 28 Sudoeste 0 -- -- 73
2019-10-01 00:00:00 19.6 8 Sudoeste 20 Oeste 0 -- -- 77
2019-09-30 23:00:00 19 7 Oeste 19 Oeste 0 -- -- 81
2019-09-30 22:00:00 17.1 2 Noroeste 10 Sudeste 0 -- -- 93
2019-09-30 21:00:00 18.5 7 Sudeste 14 Sudeste 0 -- -- 92
2019-09-30 20:00:00 19.4 8 Sudeste 15 Este 0 -- -- 91
2019-09-30 19:00:00 20.2 9 Este 15 Nordeste 0 -- -- 88
2019-09-30 18:00:00 20.9 8 Este 16 Este 0 -- -- 86
2019-09-30 17:00:00 21.5 7 Este 14 Norte 0 -- -- 83
2019-09-30 16:00:00 22.7 8 Noroeste 19 Norte 0 -- -- 78
2019-09-30 15:00:00 27.3 15 Sudoeste 32 Sudoeste 0 -- -- 57
2019-09-30 14:00:00 26.2 13 Sudoeste 27 Sudoeste 0 -- -- 61
2019-09-30 13:00:00 25.7 13 Sudoeste 32 Sudoeste 0 -- -- 64
2019-09-30 12:00:00 25.5 14 Sudoeste 35 Sur 0 -- -- 65
2019-09-30 11:00:00 22.7 4 Nordeste 22 Sudoeste 0 -- -- 76
2019-09-30 10:00:00 22 7 Oeste 27 Sudoeste 0 -- -- 78
2019-09-30 09:00:00 21.2 6 Sur 22 Sur 0 -- -- 81
2019-09-30 08:00:00 21.2 10 Sudoeste 32 Sur 0 -- -- 81
2019-09-30 07:00:00 21.1 17 Sur 29 Sur 0 -- -- 81
2019-09-30 06:00:00 17.4 3 Este 7 Sudeste 0 -- -- 97
2019-09-30 05:00:00 17 3 Nordeste 8 Sudoeste 0 -- -- 96
2019-09-30 04:00:00 17.1 0 Calma 12 Sudoeste 0 -- -- 96
2019-09-30 03:00:00 16.5 5 Este 10 Este 0 -- -- 97
2019-09-30 02:00:00 16.1 5 Este 9 Sudeste 0 -- -- 97
2019-09-30 01:00:00 16.2 6 Este 10 Este 0 -- -- 97
2019-09-30 00:00:00 16.6 5 Sudeste 12 Sudeste 0 -- -- 95
2019-09-29 23:00:00 17.6 4 Sudeste 10 Sudeste 0 -- -- 93
2019-09-29 22:00:00 18.2 0 Calma 7 Oeste 0 -- -- 92
2019-09-29 21:00:00 18.5 0 Calma 14 Oeste 0 -- -- 90
2019-09-29 20:00:00 19.1 6 Noroeste 16 Noroeste 0 -- -- 87
2019-09-29 19:00:00 20.2 8 Norte 18 Sudoeste 0 -- -- 84
2019-09-29 18:00:00 23.6 9 Sudoeste 33 Sudoeste 0 -- -- 71
2019-09-29 17:00:00 24.3 22 Sudoeste 42 Sudoeste 0 -- -- 67
2019-09-29 16:00:00 24.8 21 Sudoeste 43 Sudoeste 0 -- -- 63
2019-09-29 15:00:00 25 25 Sudoeste 46 Sudoeste 0 -- -- 62
2019-09-29 14:00:00 24.3 24 Sudoeste 54 Sudoeste 0 -- -- 63
2019-09-29 13:00:00 23.3 27 Sudoeste 53 Sur 0 -- -- 65
2019-09-29 12:00:00 22.3 31 Sur 60 Sur 0 -- -- 65
2019-09-29 11:00:00 21.3 30 Sur 67 Sur 0 -- -- 68
2019-09-29 10:00:00 20.1 30 Sur 59 Sudoeste 0 -- -- 67
2019-09-29 09:00:00 18.5 35 Sur 67 Sur 0 -- -- 71
2019-09-29 08:00:00 18 27 Sudoeste 60 Sur 0 -- -- 71
2019-09-29 07:00:00 18.7 34 Sur 63 Sudoeste 0 -- -- 56
2019-09-29 06:00:00 19.9 33 Sur 64 Sur 0 -- -- 51
2019-09-29 05:00:00 19.7 26 Sur 60 Sur 0 -- -- 50
2019-09-29 04:00:00 19.9 37 Sur 60 Sur 0 -- -- 45
2019-09-29 03:00:00 19.6 23 Sur 44 Sur 0 -- -- 47
2019-09-29 02:00:00 17 6 Nordeste 18 Sudoeste 0 -- -- 50
2019-09-29 01:00:00 16.8 6 Noroeste 19 Sudoeste 0 -- -- 59
2019-09-29 00:00:00 12.5 9 Oeste 13 Oeste 0 -- -- 88
2019-09-28 23:00:00 13.2 3 Sudeste 14 Sudeste 0 -- -- 85
2019-09-28 22:00:00 13.5 11 Sur 13 Sur 0 -- -- 88
2019-09-28 21:00:00 13.9 8 Sur 9 Sur 0 -- -- 84
2019-09-28 20:00:00 17.5 0 Calma 13 Nordeste 0 -- -- 72
2019-09-28 19:00:00 18.5 8 Este 12 Nordeste 0 -- -- 68
2019-09-28 18:00:00 19.2 6 Nordeste 14 Nordeste 0 -- -- 64
2019-09-28 17:00:00 19.7 7 Norte 15 Norte 0 -- -- 61
2019-09-28 16:00:00 20.1 8 Nordeste 17 Nordeste 0 -- -- 60
2019-09-28 15:00:00 20.2 11 Nordeste 20 Nordeste 0 -- -- 61
2019-09-28 14:00:00 20.6 6 Noroeste 16 Noroeste 0 -- -- 61
2019-09-28 13:00:00 20.8 9 Sudoeste 18 Sur 0 -- -- 58
2019-09-28 12:00:00 19.7 7 Sur 18 Sur 0 -- -- 63
2019-09-28 11:00:00 18.2 8 Sudoeste 15 Sur 0 -- -- 64
2019-09-28 10:00:00 15.6 11 Sur 22 Sur 0 -- -- 76
2019-09-28 09:00:00 13.3 14 Sur 19 Sur 0 -- -- 83
2019-09-28 08:00:00 13.2 13 Sur 21 Sur 0 -- -- 82
2019-09-28 07:00:00 13 10 Sur 17 Sur 0 -- -- 83
2019-09-28 06:00:00 14.9 7 Sur 18 Sudoeste 0 -- -- 74
2019-09-28 05:00:00 14.9 9 Sudoeste 17 Sudoeste 0.2 -- -- 76
2019-09-28 04:00:00 15 10 Sudoeste 19 Sudoeste 0 -- -- 75
2019-09-28 03:00:00 15.9 7 Sudoeste 13 Sur 0 -- -- 69
2019-09-28 02:00:00 15.9 6 Sudoeste 10 Sudoeste 0 -- -- 71
2019-09-28 01:00:00 15.7 3 Oeste 9 Oeste 0 -- -- 72
2019-09-28 00:00:00 16.4 6 Sudoeste 16 Sudoeste 0 -- -- 68
2019-09-27 23:00:00 16.9 9 Sudoeste 17 Sudoeste 0 -- -- 66
2019-09-27 22:00:00 16.5 15 Oeste 21 Oeste 0 -- -- 69
2019-09-27 21:00:00 16.7 12 Oeste 19 Oeste 0 -- -- 76
2019-09-27 20:00:00 18.3 9 Oeste 20 Noroeste 0 -- -- 76
2019-09-27 19:00:00 20.7 11 Oeste 27 Noroeste 0 -- -- 61
2019-09-27 18:00:00 21.6 14 Oeste 31 Noroeste 0 -- -- 57
2019-09-27 17:00:00 21.4 15 Oeste 30 Noroeste 0 -- -- 62
2019-09-27 16:00:00 20.8 14 Noroeste 28 Noroeste 0 -- -- 65
2019-09-27 15:00:00 20.4 16 Oeste 33 Oeste 0 -- -- 69
2019-09-27 14:00:00 17.4 11 Oeste 18 Oeste 0.2 -- -- 93
2019-09-27 13:00:00 18.8 10 Oeste 23 Oeste 0 -- -- 85
2019-09-27 12:00:00 21.1 11 Sudoeste 30 Sur 0 -- -- 72
2019-09-27 11:00:00 18.6 18 Sur 40 Sudoeste 0 -- -- 80
2019-09-27 10:00:00 18.6 19 Sur 39 Sur 0 -- -- 77
2019-09-27 09:00:00 18.1 20 Sur 36 Sur 0 -- -- 78
2019-09-27 08:00:00 17.8 17 Sur 35 Sudoeste 0 -- -- 80
2019-09-27 07:00:00 18.5 21 Sur 40 Sur 0 -- -- 74
2019-09-27 06:00:00 19.1 24 Sudoeste 45 Sur 0 -- -- 71
2019-09-27 05:00:00 19 22 Sudoeste 45 Sur 0 -- -- 69
2019-09-27 04:00:00 18.8 28 Sur 52 Sur 0 -- -- 67
2019-09-27 03:00:00 18.8 30 Sur 52 Sur 0 -- -- 67
2019-09-27 02:00:00 19.1 28 Sur 48 Sur 0 -- -- 65
2019-09-27 01:00:00 18.9 24 Sur 41 Sudoeste 0 -- -- 64
2019-09-27 00:00:00 18.9 25 Sur 44 Sur 0 -- -- 65
2019-09-26 23:00:00 18.8 21 Sur 41 Sur 0 -- -- 66
2019-09-26 22:00:00 18.8 5 Este 35 Oeste 0 -- -- 67
2019-09-26 21:00:00 19.7 4 Sur 36 Oeste 0 -- -- 63
2019-09-26 20:00:00 20.9 12 Oeste 34 Oeste 0 -- -- 61
2019-09-26 19:00:00 23.5 22 Oeste 31 Oeste 0 -- -- 53
2019-09-26 18:00:00 25.4 13 Oeste 33 Oeste 0 -- -- 50
2019-09-26 17:00:00 25.8 17 Oeste 31 Sudoeste 0 -- -- 48
2019-09-26 16:00:00 25.5 18 Oeste 41 Oeste 0 -- -- 48
2019-09-26 15:00:00 24.6 17 Sudoeste 37 Sudoeste 0 -- -- 49
2019-09-26 14:00:00 23.5 19 Sudoeste 42 Sudoeste 0 -- -- 52
2019-09-26 13:00:00 22.2 18 Sur 41 Oeste 0 -- -- 55
2019-09-26 12:00:00 21.1 21 Sudoeste 40 Oeste 0 -- -- 58
2019-09-26 11:00:00 20.2 18 Sudoeste 33 Sudoeste 0 -- -- 60
2019-09-26 10:00:00 18.8 12 Sudoeste 26 Sur 0 -- -- 63
2019-09-26 09:00:00 17.1 9 Sudoeste 21 Sudoeste 0 -- -- 70
2019-09-26 08:00:00 16.9 9 Oeste 31 Oeste 0 -- -- 72
2019-09-26 07:00:00 16.9 11 Oeste 24 Oeste 0 -- -- 71
2019-09-26 06:00:00 16.8 12 Oeste 26 Sudoeste 0 -- -- 72
2019-09-26 05:00:00 17 10 Sudoeste 26 Sudoeste 0 -- -- 73
2019-09-26 04:00:00 16.7 12 Sudoeste 25 Oeste 0 -- -- 75
2019-09-26 03:00:00 16.4 8 Sudoeste 21 Sudoeste 0 -- -- 76
2019-09-26 02:00:00 16.9 12 Oeste 23 Noroeste 0 -- -- 75
2019-09-26 01:00:00 16.5 5 Oeste 19 Sur 0 -- -- 75
2019-09-26 00:00:00 17.3 5 Oeste 18 Oeste 0 -- -- 72
2019-09-25 23:00:00 17.1 3 Sudoeste 17 Oeste 0 -- -- 73
2019-09-25 22:00:00 17.7 8 Oeste 16 Sudoeste 0 -- -- 71
2019-09-25 21:00:00 18.5 10 Sudoeste 19 Sudoeste 0 -- -- 69
2019-09-25 20:00:00 19.6 12 Oeste 30 Oeste 0 -- -- 66
2019-09-25 19:00:00 21.6 12 Sudoeste 26 Sudoeste 0 -- -- 60
2019-09-25 18:00:00 21.6 17 Sudoeste 32 Oeste 0 -- -- 61
2019-09-25 17:00:00 22 16 Sudoeste 40 Oeste 0 -- -- 59
2019-09-25 16:00:00 21.9 14 Sudoeste 37 Sudoeste 0 -- -- 59
2019-09-25 15:00:00 20.7 15 Sudoeste 34 Sudoeste 0 -- -- 62
2019-09-25 14:00:00 21 18 Sudoeste 32 Sudoeste 0 -- -- 63
2019-09-25 13:00:00 20 14 Sudoeste 40 Sudoeste 0 -- -- 65
2019-09-25 12:00:00 -- -- -- -- -- -- -- -- --
2019-09-25 11:00:00 -- -- -- -- -- -- -- -- --
2019-09-25 10:00:00 -- -- -- -- -- -- -- -- --
2019-09-25 09:00:00 -- -- -- -- -- -- -- -- --
2019-09-25 08:00:00 -- -- -- -- -- -- -- -- --
2019-09-25 07:00:00 15.8 12 Sur 31 Sudoeste 0 -- -- 79
2019-09-25 06:00:00 15.9 18 Sur 37 Sur 0 -- -- 79
2019-09-25 05:00:00 16.2 21 Sudoeste 36 Sudoeste 0 -- -- 76
2019-09-25 04:00:00 16 14 Sudoeste 28 Sur 0 -- -- 77
2019-09-25 03:00:00 15.9 17 Sur 33 Sur 0 -- -- 77
2019-09-25 02:00:00 16.4 20 Sudoeste 40 Sudoeste 0 -- -- 74
2019-09-25 01:00:00 17 21 Sudoeste 36 Sudoeste 0 -- -- 71
2019-09-25 00:00:00 17.5 19 Sudoeste 39 Sudoeste 0 -- -- 69
2019-09-24 23:00:00 17.5 15 Sudoeste 31 Sudoeste 0 -- -- 70
2019-09-24 22:00:00 17.9 18 Sudoeste 31 Sudoeste 0 -- -- 68
2019-09-24 21:00:00 17.9 8 Oeste 27 Sudoeste 0 -- -- 68
2019-09-24 20:00:00 19.1 11 Sudoeste 28 Oeste 0 -- -- 65
2019-09-24 19:00:00 21.3 16 Oeste 35 Oeste 0 -- -- 59
2019-09-24 18:00:00 22.8 18 Oeste 36 Oeste 0 -- -- 55
2019-09-24 17:00:00 23.1 21 Oeste 41 Oeste 0 -- -- 56
2019-09-24 16:00:00 23.2 18 Oeste 55 Oeste 0 -- -- 56
2019-09-24 15:00:00 23.6 28 Oeste 51 Oeste 0 -- -- 53
2019-09-24 14:00:00 23 32 Sudoeste 52 Sudoeste 0 -- -- 53
2019-09-24 13:00:00 23.1 16 Sudoeste 35 Oeste 0 -- -- 58
2019-09-24 12:00:00 20.8 17 Oeste 40 Sudoeste 0 -- -- 70
2019-09-24 11:00:00 21.1 19 Sudoeste 28 Sudoeste 0 -- -- 70
2019-09-24 10:00:00 19.6 12 Sudoeste 22 Sudoeste 0 -- -- 78
2019-09-24 09:00:00 18.5 10 Sudoeste 22 Sudoeste 0 -- -- 87
2019-09-24 08:00:00 18.9 13 Sudoeste 38 Sudoeste 0.8 -- -- 88
2019-09-24 07:00:00 19.3 24 Sur 50 Sudoeste 0 -- -- 80
2019-09-24 06:00:00 19.8 29 Sudoeste 53 Sudoeste 0 -- -- 75
2019-09-24 05:00:00 20.1 27 Sur 63 Sudoeste 0 -- -- 73
2019-09-24 04:00:00 21.2 27 Sudoeste 60 Sudoeste 0 -- -- 66
2019-09-24 03:00:00 21.7 38 Sudoeste 76 Sudoeste 0 -- -- 65
2019-09-24 02:00:00 22 41 Sur 80 Sudoeste 0 -- -- 63
2019-09-24 01:00:00 22.2 23 Sur 53 Sudoeste 0 -- -- 63
2019-09-24 00:00:00 22.3 26 Sur 51 Sudoeste 0 -- -- 62
2019-09-23 23:00:00 22.2 31 Sudoeste 59 Sudoeste 0 -- -- 61
2019-09-23 22:00:00 22.1 30 Sudoeste 57 Sudoeste 0 -- -- 61
2019-09-23 21:00:00 22 27 Sudoeste 58 Sudeste 0 -- -- 62
2019-09-23 20:00:00 21.7 30 Sudoeste 53 Sudoeste 0 -- -- 62
2019-09-23 19:00:00 20.6 29 Sur 65 Sur 0 -- -- 67
2019-09-23 18:00:00 20 32 Sudoeste 62 Sur 0.2 -- -- 70
2019-09-23 17:00:00 19.7 39 Sur 66 Sudoeste 0.4 -- -- 72
2019-09-23 16:00:00 18.8 33 Sur 67 Sudoeste 0.2 -- -- 73
2019-09-23 15:00:00 19 37 Sur 70 Sur 0.4 -- -- 68
2019-09-23 14:00:00 18.6 42 Sur 68 Sur 0.2 -- -- 71
2019-09-23 13:00:00 19.1 36 Sur 57 Sur 0 -- -- 64
2019-09-23 12:00:00 18.5 22 Sur 40 Sur 0 -- -- 67
2019-09-23 11:00:00 17.2 21 Sur 45 Sur 0.2 -- -- 72
2019-09-23 10:00:00 16.3 31 Sur 47 Sur 0.2 -- -- 77
2019-09-23 09:00:00 17.3 23 Sur 49 Sudoeste 0 -- -- 69
2019-09-23 08:00:00 16.5 28 Sur 48 Sudoeste 0 -- -- 74
2019-09-23 07:00:00 16.8 24 Sur 46 Sur 0 -- -- 71
2019-09-23 06:00:00 17.2 13 Sudoeste 35 Sudoeste 0 -- -- 71
2019-09-23 05:00:00 16.9 10 Sudoeste 24 Sur 0 -- -- 72
2019-09-23 04:00:00 16.9 6 Sudoeste 25 Sudoeste 0 -- -- 71
2019-09-23 03:00:00 16.8 9 Sudoeste 24 Sudoeste 0 -- -- 71
2019-09-23 02:00:00 16.9 10 Sudoeste 24 Sudoeste 0 -- -- 70
2019-09-23 01:00:00 17 14 Sudoeste 28 Sudoeste 0 -- -- 72
2019-09-23 00:00:00 17.2 17 Sudoeste 30 Sudoeste 0 -- -- 72
2019-09-22 23:00:00 17.3 9 Sudoeste 17 Sur 0 -- -- 72
2019-09-22 22:00:00 17.3 10 Sudoeste 22 Sudoeste 0 -- -- 73
2019-09-22 21:00:00 17.4 5 Sudeste 10 Este 0 -- -- 86
2019-09-22 20:00:00 19.1 2 Sur 13 Norte 0 -- -- 79
2019-09-22 19:00:00 20.4 9 Oeste 16 Oeste 0 -- -- 70
2019-09-22 18:00:00 18.6 5 Norte 19 Oeste 0 -- -- 78
2019-09-22 17:00:00 19.9 13 Oeste 25 Oeste 0 -- -- 71
2019-09-22 16:00:00 19.1 18 Oeste 37 Oeste 0.4 -- -- 73
2019-09-22 15:00:00 21.5 18 Sudoeste 35 Oeste 0 -- -- 55
2019-09-22 14:00:00 21.8 20 Sudoeste 38 Sudoeste 0 -- -- 54
2019-09-22 13:00:00 20.6 21 Sudoeste 40 Sudoeste 0 -- -- 61
2019-09-22 12:00:00 19.6 21 Sudoeste 41 Sudoeste 0 -- -- 63
2019-09-22 11:00:00 18.4 19 Sudoeste 36 Sudoeste 0 -- -- 67
2019-09-22 10:00:00 17.2 17 Sudoeste 40 Sudoeste 0 -- -- 71
2019-09-22 09:00:00 16.3 21 Sudoeste 41 Sudoeste 0 -- -- 73
2019-09-22 08:00:00 16.4 18 Sudoeste 39 Sudoeste 0 -- -- 71
2019-09-22 07:00:00 16.3 15 Sudoeste 47 Sudoeste 0 -- -- 71
2019-09-22 06:00:00 16.4 18 Sudoeste 37 Sur 0 -- -- 73
2019-09-22 05:00:00 16.2 12 Sudoeste 24 Oeste 0 -- -- 74
2019-09-22 04:00:00 16.3 4 Sudoeste 22 Sudoeste 0 -- -- 78
2019-09-22 03:00:00 17 13 Sudoeste 41 Sudoeste 0 -- -- 77
2019-09-22 02:00:00 17.5 18 Sudoeste 40 Sudoeste 0 -- -- 73
2019-09-22 01:00:00 17.2 14 Sudoeste 30 Sudoeste 0 -- -- 74
2019-09-22 00:00:00 17.3 17 Sur 33 Sur 0 -- -- 73
2019-09-21 23:00:00 17.1 16 Sudoeste 36 Sudoeste 0 -- -- 74
2019-09-21 22:00:00 16.6 23 Sur 38 Sur 0 -- -- 79
2019-09-21 21:00:00 16.1 15 Sudoeste 43 Sudoeste 0 -- -- 80
2019-09-21 20:00:00 17.5 27 Sudoeste 42 Sudoeste 5 -- -- 81
2019-09-21 19:00:00 20.4 3 Sudoeste 21 Sudoeste 0.4 -- -- 89
2019-09-21 18:00:00 22.4 9 Sur 37 Sudoeste 0 -- -- 75
2019-09-21 17:00:00 25.9 19 Sudoeste 43 Sur 0 -- -- 57
2019-09-21 16:00:00 26.2 17 Sudoeste 40 Sudoeste 0 -- -- 56
2019-09-21 15:00:00 25.3 20 Sur 51 Sur 0 -- -- 59
2019-09-21 14:00:00 24.5 23 Sur 41 Sur 0 -- -- 61
2019-09-21 13:00:00 21.7 5 Norte 13 Sudeste 0 -- -- 84
2019-09-21 12:00:00 19.1 3 Este 8 Sudeste 0 -- -- 92
2019-09-21 11:00:00 17.3 5 Sudeste 10 Sur 0 -- -- 97
2019-09-21 10:00:00 16.5 7 Sur 10 Sur 1.6 -- -- 98
2019-09-21 09:00:00 15.7 5 Sudeste 10 Sudeste 0 -- -- 96
2019-09-21 08:00:00 15.5 9 Sur 13 Sur 0 -- -- 96
2019-09-21 07:00:00 15.1 9 Sudeste 12 Sudeste 0 -- -- 97
2019-09-21 06:00:00 15.6 10 Sur 17 Sur 0 -- -- 96
2019-09-21 05:00:00 15.8 10 Sur 18 Sudoeste 0 -- -- 95
2019-09-21 04:00:00 14.7 8 Sur 13 Sur 0 -- -- 99
2019-09-21 03:00:00 15.5 2 Nordeste 13 Este 0 -- -- 99
2019-09-21 02:00:00 14.9 5 Sudeste 12 Sudeste 0 -- -- 100
2019-09-21 01:00:00 15 6 Sur 14 Sur 0 -- -- 99
2019-09-21 00:00:00 15.3 9 Sur 17 Sur 0 -- -- 99
2019-09-20 23:00:00 15.3 3 Sudeste 9 Sur 0 -- -- 98
2019-09-20 22:00:00 15.9 7 Sudeste 13 Sudeste 0 -- -- 98
2019-09-20 21:00:00 16.1 3 Sur 10 Sur 0 -- -- 98
2019-09-20 20:00:00 16.1 4 Sur 13 Este 0.4 -- -- 98
2019-09-20 19:00:00 16.1 7 Oeste 15 Noroeste 1 -- -- 98
2019-09-20 18:00:00 16.2 7 Oeste 14 Noroeste 0 -- -- 96
2019-09-20 17:00:00 16.3 4 Noroeste 14 Noroeste 0 -- -- 96
2019-09-20 16:00:00 16.5 8 Noroeste 18 Noroeste 0 -- -- 96
2019-09-20 15:00:00 16.5 10 Noroeste 18 Noroeste 0 -- -- 98
2019-09-20 14:00:00 16.6 6 Noroeste 10 Noroeste 0 -- -- 99
2019-09-20 13:00:00 16 5 Noroeste 15 Noroeste 0.4 -- -- 99
2019-09-20 12:00:00 16.4 4 Noroeste 8 Noroeste 0 -- -- 98
2019-09-20 11:00:00 16.3 3 Noroeste 12 Sudoeste 0 -- -- 99
2019-09-20 10:00:00 15.9 6 Oeste 13 Oeste 0 -- -- 99
2019-09-20 09:00:00 15.7 8 Oeste 10 Oeste 0 -- -- 100
2019-09-20 08:00:00 13.9 0 Calma 6 Sudoeste 0 -- -- 98
2019-09-20 07:00:00 14.5 2 Sur 4 Oeste 0 -- -- 98
2019-09-20 06:00:00 14.7 0 Calma 5 Este 0 -- -- 98
2019-09-20 05:00:00 14.5 2 Sur 5 Sur 0 -- -- 97
2019-09-20 04:00:00 14.9 0 Calma 5 Sudeste 0 -- -- 96
2019-09-20 03:00:00 15.8 0 Calma 6 Sudeste 0 -- -- 97
2019-09-20 02:00:00 16.4 4 Sudoeste 8 Oeste 0 -- -- 97
2019-09-20 01:00:00 16.2 3 Oeste 10 Oeste 0 -- -- 98
2019-09-20 00:00:00 15.5 8 Oeste 10 Oeste 0 -- -- 97
2019-09-19 23:00:00 15.3 5 Oeste 10 Oeste 0 -- -- 96
2019-09-19 22:00:00 15.6 5 Oeste 8 Oeste 0 -- -- 94
2019-09-19 21:00:00 16.8 3 Norte 13 Nordeste 0 -- -- 91
2019-09-19 20:00:00 17.7 4 Norte -- -- -- -- -- 89
2019-09-19 19:00:00 -- -- -- -- -- -- -- -- --
2019-09-19 18:00:00 -- -- -- -- -- -- -- -- --
2019-09-19 17:00:00 20.7 17 Nordeste 32 Este 0 -- -- 78
2019-09-19 16:00:00 20.6 17 Nordeste 32 Este 0 -- -- 80
2019-09-19 15:00:00 21.5 16 Nordeste 31 Este 0 -- -- 77
2019-09-19 14:00:00 20.8 16 Nordeste 29 Nordeste 0 -- -- 82
2019-09-19 13:00:00 20.8 14 Nordeste 23 Nordeste 0 -- -- 80
2019-09-19 12:00:00 20 11 Nordeste 23 Nordeste 0 -- -- 82
2019-09-19 11:00:00 19 5 Oeste 10 Noroeste 0 -- -- 92
2019-09-19 10:00:00 17.6 6 Oeste 10 Oeste 0 -- -- 98
2019-09-19 09:00:00 16.3 6 Oeste 9 Oeste 0 -- -- 98
2019-09-19 08:00:00 16.4 5 Oeste 8 Oeste 0 -- -- 96
2019-09-19 07:00:00 17.1 0 Calma 5 Este 0 -- -- 96
2019-09-19 06:00:00 17.1 2 Oeste 5 Nordeste 0 -- -- 95
2019-09-19 05:00:00 17.3 0 Calma 9 Este 0 -- -- 94
2019-09-19 04:00:00 18 8 Este 24 Este 0 -- -- 93
2019-09-19 03:00:00 17.8 14 Este 26 Nordeste 0 -- -- 93
2019-09-19 02:00:00 18 15 Este 24 Este 0 -- -- 91
2019-09-19 01:00:00 18 14 Este 25 Este 0 -- -- 92
2019-09-19 00:00:00 18.2 13 Este 24 Este 0 -- -- 92
2019-09-18 23:00:00 18.1 14 Este 25 Este 0 -- -- 93
2019-09-18 22:00:00 18 10 Nordeste 17 Este 0 -- -- 94
2019-09-18 21:00:00 18.3 9 Este 20 Este 0 -- -- 93
2019-09-18 20:00:00 18.7 9 Este 16 Este 0 -- -- 93
2019-09-18 19:00:00 19.1 6 Nordeste 14 Nordeste 0 -- -- 94
2019-09-18 18:00:00 19.3 4 Nordeste 10 Nordeste 0 -- -- 94
2019-09-18 17:00:00 19.6 5 Nordeste 12 Nordeste 0 -- -- 93
2019-09-18 16:00:00 20.4 5 Norte 10 Norte 0 -- -- 90
2019-09-18 15:00:00 20 4 Norte 13 Nordeste 0 -- -- 90
2019-09-18 14:00:00 20.5 5 Norte 12 Norte 0 -- -- 90
2019-09-18 13:00:00 20.3 8 Norte 17 Norte 0 -- -- 93
2019-09-18 12:00:00 19.7 5 Oeste 8 Oeste 0 -- -- 98
2019-09-18 11:00:00 18.6 3 Noroeste 6 Sudoeste 0 -- -- 99
2019-09-18 10:00:00 18.3 4 Oeste 6 Oeste 0 -- -- 100
2019-09-18 09:00:00 17.8 5 Sudoeste 7 Sudoeste 0 -- -- 100
2019-09-18 08:00:00 17.3 4 Sur 7 Sur 0 -- -- 100
2019-09-18 07:00:00 17.5 4 Sudoeste 6 Sur 0 -- -- 100
2019-09-18 06:00:00 17.3 0 Calma 8 Sudeste 0 -- -- 100
2019-09-18 05:00:00 17.8 2 Oeste 5 Sudoeste 0 -- -- 100
2019-09-18 04:00:00 18.1 2 Oeste 9 Oeste 0 -- -- 100
2019-09-18 03:00:00 17.9 6 Oeste 8 Sudoeste 0 -- -- 99
2019-09-18 02:00:00 18 3 Sudeste 13 Sur 0 -- -- 99
2019-09-18 01:00:00 18.7 10 Sur 14 Sur 0 -- -- 99
2019-09-18 00:00:00 18.7 4 Noroeste 9 Oeste 0.4 -- -- 98
2019-09-17 23:00:00 19.1 5 Oeste 10 Oeste 0.8 -- -- 98
2019-09-17 22:00:00 19.2 0 Calma 5 Noroeste 0.6 -- -- 97
2019-09-17 21:00:00 19.2 4 Noroeste 6 Noroeste 0 -- -- 96